sensor_id;sensor_type;location;lat;lon;timestamp;temperature;humidity
831;DHT22;397;50.564;7.272;2022-12-13T00:01:34;-2.60;99.90
831;DHT22;397;50.564;7.272;2022-12-13T00:04:04;-2.60;99.90
831;DHT22;397;50.564;7.272;2022-12-13T00:06:33;-2.60;99.90
831;DHT22;397;50.564;7.272;2022-12-13T00:09:01;-2.60;99.90
831;DHT22;397;50.564;7.272;2022-12-13T00:11:30;-2.60;99.90
831;DHT22;397;50.564;7.272;2022-12-13T00:13:57;-2.70;99.90
831;DHT22;397;50.564;7.272;2022-12-13T00:16:26;-2.70;99.90
831;DHT22;397;50.564;7.272;2022-12-13T00:18:55;-2.70;99.90
831;DHT22;397;50.564;7.272;2022-12-13T00:21:26;-2.80;99.90
831;DHT22;397;50.564;7.272;2022-12-13T00:23:55;-2.80;99.90
831;DHT22;397;50.564;7.272;2022-12-13T00:26:25;-2.80;99.90
831;DHT22;397;50.564;7.272;2022-12-13T00:28:54;-2.90;99.90
831;DHT22;397;50.564;7.272;2022-12-13T00:31:23;-2.90;99.90
831;DHT22;397;50.564;7.272;2022-12-13T00:33:51;-2.80;99.90
831;DHT22;397;50.564;7.272;2022-12-13T00:36:19;-2.90;99.90
831;DHT22;397;50.564;7.272;2022-12-13T00:38:47;-2.90;99.90
831;DHT22;397;50.564;7.272;2022-12-13T00:41:18;-3.00;99.90
831;DHT22;397;50.564;7.272;2022-12-13T00:43:46;-2.90;99.90
831;DHT22;397;50.564;7.272;2022-12-13T00:46:16;-2.90;99.90
831;DHT22;397;50.564;7.272;2022-12-13T00:48:48;-2.90;99.90
831;DHT22;397;50.564;7.272;2022-12-13T00:51:13;-2.90;99.90
831;DHT22;397;50.564;7.272;2022-12-13T00:53:41;-3.00;99.90
831;DHT22;397;50.564;7.272;2022-12-13T00:56:11;-3.00;99.90
831;DHT22;397;50.564;7.272;2022-12-13T00:58:39;-3.10;99.90
831;DHT22;397;50.564;7.272;2022-12-13T01:01:09;-3.10;99.90
831;DHT22;397;50.564;7.272;2022-12-13T01:03:38;-3.10;99.90
831;DHT22;397;50.564;7.272;2022-12-13T01:06:14;-3.20;99.90
831;DHT22;397;50.564;7.272;2022-12-13T01:08:42;-3.10;99.90
831;DHT22;397;50.564;7.272;2022-12-13T01:11:11;-3.10;99.90
831;DHT22;397;50.564;7.272;2022-12-13T01:13:39;-3.10;99.90
831;DHT22;397;50.564;7.272;2022-12-13T01:16:08;-3.20;99.90
831;DHT22;397;50.564;7.272;2022-12-13T01:18:37;-3.20;99.90
831;DHT22;397;50.564;7.272;2022-12-13T01:21:06;-3.30;99.90
831;DHT22;397;50.564;7.272;2022-12-13T01:23:35;-3.20;99.90
831;DHT22;397;50.564;7.272;2022-12-13T01:26:05;-3.30;99.90
831;DHT22;397;50.564;7.272;2022-12-13T01:28:33;-3.40;99.90
831;DHT22;397;50.564;7.272;2022-12-13T01:31:03;-3.30;99.90
831;DHT22;397;50.564;7.272;2022-12-13T01:33:31;-3.30;99.90
831;DHT22;397;50.564;7.272;2022-12-13T01:36:04;-3.30;99.90
831;DHT22;397;50.564;7.272;2022-12-13T01:38:33;-3.30;99.90
831;DHT22;397;50.564;7.272;2022-12-13T01:41:02;-3.30;99.90
831;DHT22;397;50.564;7.272;2022-12-13T01:46:10;-3.30;99.90
831;DHT22;397;50.564;7.272;2022-12-13T01:48:41;-3.30;99.90
831;DHT22;397;50.564;7.272;2022-12-13T01:51:09;-3.40;99.90
831;DHT22;397;50.564;7.272;2022-12-13T01:53:40;-3.30;99.90
831;DHT22;397;50.564;7.272;2022-12-13T01:56:19;-3.30;99.90
831;DHT22;397;50.564;7.272;2022-12-13T01:58:43;-3.40;99.90
831;DHT22;397;50.564;7.272;2022-12-13T02:01:11;-3.30;99.90
831;DHT22;397;50.564;7.272;2022-12-13T02:03:39;-3.20;99.90
831;DHT22;397;50.564;7.272;2022-12-13T02:06:09;-3.20;99.90
831;DHT22;397;50.564;7.272;2022-12-13T02:08:38;-3.10;99.90
831;DHT22;397;50.564;7.272;2022-12-13T02:11:08;-3.20;99.90
831;DHT22;397;50.564;7.272;2022-12-13T02:13:37;-3.00;99.90
831;DHT22;397;50.564;7.272;2022-12-13T02:16:28;-2.90;99.90
831;DHT22;397;50.564;7.272;2022-12-13T02:18:48;-2.90;99.90
831;DHT22;397;50.564;7.272;2022-12-13T02:29:33;-2.80;99.90
831;DHT22;397;50.564;7.272;2022-12-13T02:32:10;-3.00;99.90
831;DHT22;397;50.564;7.272;2022-12-13T02:34:38;-2.80;99.90
831;DHT22;397;50.564;7.272;2022-12-13T02:37:19;-2.80;99.90
831;DHT22;397;50.564;7.272;2022-12-13T02:39:42;-2.70;99.90
831;DHT22;397;50.564;7.272;2022-12-13T02:42:34;-2.60;99.90
831;DHT22;397;50.564;7.272;2022-12-13T02:44:56;-2.40;99.90
831;DHT22;397;50.564;7.272;2022-12-13T02:47:25;-2.30;99.90
831;DHT22;397;50.564;7.272;2022-12-13T02:49:58;-2.50;99.90
831;DHT22;397;50.564;7.272;2022-12-13T02:52:29;-2.50;99.90
831;DHT22;397;50.564;7.272;2022-12-13T02:54:57;-2.50;99.90
831;DHT22;397;50.564;7.272;2022-12-13T03:00:14;-2.70;99.90
831;DHT22;397;50.564;7.272;2022-12-13T03:08:21;-2.50;99.90
831;DHT22;397;50.564;7.272;2022-12-13T03:10:53;-2.20;99.90
831;DHT22;397;50.564;7.272;2022-12-13T03:13:32;-2.00;99.90
831;DHT22;397;50.564;7.272;2022-12-13T03:18:38;-2.00;99.90
831;DHT22;397;50.564;7.272;2022-12-13T03:21:08;-1.90;99.90
831;DHT22;397;50.564;7.272;2022-12-13T03:23:36;-1.80;99.90
831;DHT22;397;50.564;7.272;2022-12-13T03:26:24;-1.70;99.90
831;DHT22;397;50.564;7.272;2022-12-13T03:28:53;-1.70;99.90
831;DHT22;397;50.564;7.272;2022-12-13T03:31:20;-1.70;99.90
831;DHT22;397;50.564;7.272;2022-12-13T03:33:48;-1.80;99.90
831;DHT22;397;50.564;7.272;2022-12-13T03:36:16;-1.70;99.90
831;DHT22;397;50.564;7.272;2022-12-13T03:38:46;-1.70;99.90
831;DHT22;397;50.564;7.272;2022-12-13T03:41:16;-1.70;99.90
831;DHT22;397;50.564;7.272;2022-12-13T03:43:44;-1.70;99.90
831;DHT22;397;50.564;7.272;2022-12-13T03:46:12;-1.80;99.90
831;DHT22;397;50.564;7.272;2022-12-13T03:48:40;-2.20;99.90
831;DHT22;397;50.564;7.272;2022-12-13T03:51:07;-2.50;99.90
831;DHT22;397;50.564;7.272;2022-12-13T03:53:34;-2.60;99.90
831;DHT22;397;50.564;7.272;2022-12-13T03:56:03;-2.60;99.90
831;DHT22;397;50.564;7.272;2022-12-13T03:58:32;-2.50;99.90
831;DHT22;397;50.564;7.272;2022-12-13T04:01:00;-2.40;99.90
831;DHT22;397;50.564;7.272;2022-12-13T04:03:28;-2.40;99.90
831;DHT22;397;50.564;7.272;2022-12-13T04:05:55;-2.40;99.90
831;DHT22;397;50.564;7.272;2022-12-13T04:08:23;-2.40;99.90
831;DHT22;397;50.564;7.272;2022-12-13T04:10:50;-2.40;99.90
831;DHT22;397;50.564;7.272;2022-12-13T04:13:18;-2.30;99.90
831;DHT22;397;50.564;7.272;2022-12-13T04:16:01;-2.30;99.90
831;DHT22;397;50.564;7.272;2022-12-13T04:18:29;-2.40;99.90
831;DHT22;397;50.564;7.272;2022-12-13T04:20:57;-2.40;99.90
831;DHT22;397;50.564;7.272;2022-12-13T04:23:24;-2.50;99.90
831;DHT22;397;50.564;7.272;2022-12-13T04:25:52;-2.60;99.90
831;DHT22;397;50.564;7.272;2022-12-13T04:28:19;-2.80;99.90
831;DHT22;397;50.564;7.272;2022-12-13T04:30:47;-2.90;99.90
831;DHT22;397;50.564;7.272;2022-12-13T04:33:14;-3.00;99.90
831;DHT22;397;50.564;7.272;2022-12-13T04:35:42;-2.90;99.90
831;DHT22;397;50.564;7.272;2022-12-13T04:38:09;-2.90;99.90
831;DHT22;397;50.564;7.272;2022-12-13T04:40:37;-2.90;99.90
831;DHT22;397;50.564;7.272;2022-12-13T04:43:04;-3.10;99.90
831;DHT22;397;50.564;7.272;2022-12-13T04:45:32;-3.10;99.90
831;DHT22;397;50.564;7.272;2022-12-13T04:47:59;-3.00;99.90
831;DHT22;397;50.564;7.272;2022-12-13T04:50:27;-3.00;99.90
831;DHT22;397;50.564;7.272;2022-12-13T04:52:55;-2.90;99.90
831;DHT22;397;50.564;7.272;2022-12-13T04:55:22;-2.90;99.90
831;DHT22;397;50.564;7.272;2022-12-13T04:57:50;-3.10;99.90
831;DHT22;397;50.564;7.272;2022-12-13T05:00:17;-3.10;99.90
831;DHT22;397;50.564;7.272;2022-12-13T05:02:46;-3.20;99.90
831;DHT22;397;50.564;7.272;2022-12-13T05:05:14;-3.40;99.90
831;DHT22;397;50.564;7.272;2022-12-13T05:07:41;-3.60;99.90
831;DHT22;397;50.564;7.272;2022-12-13T05:10:10;-3.70;99.90
831;DHT22;397;50.564;7.272;2022-12-13T05:12:37;-3.50;99.90
831;DHT22;397;50.564;7.272;2022-12-13T05:15:05;-3.50;99.90
831;DHT22;397;50.564;7.272;2022-12-13T05:17:33;-3.50;99.90
831;DHT22;397;50.564;7.272;2022-12-13T05:20:01;-3.40;99.90
831;DHT22;397;50.564;7.272;2022-12-13T05:22:28;-3.40;99.90
831;DHT22;397;50.564;7.272;2022-12-13T05:24:56;-3.40;99.90
831;DHT22;397;50.564;7.272;2022-12-13T05:27:23;-3.40;99.90
831;DHT22;397;50.564;7.272;2022-12-13T05:29:51;-3.40;99.90
831;DHT22;397;50.564;7.272;2022-12-13T05:32:18;-3.50;99.90
831;DHT22;397;50.564;7.272;2022-12-13T05:34:46;-3.80;99.90
831;DHT22;397;50.564;7.272;2022-12-13T05:37:13;-3.80;99.90
831;DHT22;397;50.564;7.272;2022-12-13T05:39:41;-3.70;99.90
831;DHT22;397;50.564;7.272;2022-12-13T05:42:09;-3.70;99.90
831;DHT22;397;50.564;7.272;2022-12-13T05:44:37;-3.80;99.90
831;DHT22;397;50.564;7.272;2022-12-13T05:47:04;-3.80;99.90
831;DHT22;397;50.564;7.272;2022-12-13T05:49:32;-3.80;99.90
831;DHT22;397;50.564;7.272;2022-12-13T05:51:59;-3.70;99.90
831;DHT22;397;50.564;7.272;2022-12-13T05:54:27;-3.80;99.90
831;DHT22;397;50.564;7.272;2022-12-13T05:56:54;-3.70;99.90
831;DHT22;397;50.564;7.272;2022-12-13T05:59:22;-3.60;99.90
831;DHT22;397;50.564;7.272;2022-12-13T06:01:49;-3.60;99.90
831;DHT22;397;50.564;7.272;2022-12-13T06:04:17;-3.60;99.90
831;DHT22;397;50.564;7.272;2022-12-13T06:06:44;-3.60;99.90
831;DHT22;397;50.564;7.272;2022-12-13T06:09:12;-3.60;99.90
831;DHT22;397;50.564;7.272;2022-12-13T06:11:39;-3.60;99.90
831;DHT22;397;50.564;7.272;2022-12-13T06:14:07;-3.70;99.90
831;DHT22;397;50.564;7.272;2022-12-13T06:16:34;-3.80;99.90
831;DHT22;397;50.564;7.272;2022-12-13T06:19:02;-3.80;99.90
831;DHT22;397;50.564;7.272;2022-12-13T06:21:31;-3.80;99.90
831;DHT22;397;50.564;7.272;2022-12-13T06:23:59;-3.70;99.90
831;DHT22;397;50.564;7.272;2022-12-13T06:26:27;-3.60;99.90
831;DHT22;397;50.564;7.272;2022-12-13T06:28:54;-3.60;99.90
831;DHT22;397;50.564;7.272;2022-12-13T06:31:22;-3.60;99.90
831;DHT22;397;50.564;7.272;2022-12-13T06:33:49;-3.60;99.90
831;DHT22;397;50.564;7.272;2022-12-13T06:36:17;-3.60;99.90
831;DHT22;397;50.564;7.272;2022-12-13T06:38:44;-3.60;99.90
831;DHT22;397;50.564;7.272;2022-12-13T06:41:14;-3.60;99.90
831;DHT22;397;50.564;7.272;2022-12-13T06:43:44;-3.70;99.90
831;DHT22;397;50.564;7.272;2022-12-13T06:46:13;-3.60;99.90
831;DHT22;397;50.564;7.272;2022-12-13T06:48:41;-3.70;99.90
831;DHT22;397;50.564;7.272;2022-12-13T06:51:09;-3.70;99.90
831;DHT22;397;50.564;7.272;2022-12-13T06:53:38;-3.70;99.90
831;DHT22;397;50.564;7.272;2022-12-13T06:56:13;-3.70;99.90
831;DHT22;397;50.564;7.272;2022-12-13T06:58:36;-3.70;99.90
831;DHT22;397;50.564;7.272;2022-12-13T07:01:07;-3.70;99.90
831;DHT22;397;50.564;7.272;2022-12-13T07:03:35;-3.60;99.90
831;DHT22;397;50.564;7.272;2022-12-13T07:06:12;-3.60;99.90
831;DHT22;397;50.564;7.272;2022-12-13T07:08:40;-3.70;99.90
831;DHT22;397;50.564;7.272;2022-12-13T07:11:13;-3.70;99.90
831;DHT22;397;50.564;7.272;2022-12-13T07:13:41;-3.70;99.90
831;DHT22;397;50.564;7.272;2022-12-13T07:16:09;-3.50;99.90
831;DHT22;397;50.564;7.272;2022-12-13T07:18:37;-3.50;99.90
831;DHT22;397;50.564;7.272;2022-12-13T07:21:06;-3.50;99.90
831;DHT22;397;50.564;7.272;2022-12-13T07:23:37;-3.40;99.90
831;DHT22;397;50.564;7.272;2022-12-13T07:26:05;-3.40;99.90
831;DHT22;397;50.564;7.272;2022-12-13T07:28:34;-3.40;99.90
831;DHT22;397;50.564;7.272;2022-12-13T07:31:04;-3.30;99.90
831;DHT22;397;50.564;7.272;2022-12-13T07:33:32;-3.30;99.90
831;DHT22;397;50.564;7.272;2022-12-13T07:36:04;-3.30;99.90
831;DHT22;397;50.564;7.272;2022-12-13T07:38:36;-3.20;99.90
831;DHT22;397;50.564;7.272;2022-12-13T07:41:04;-3.30;99.90
831;DHT22;397;50.564;7.272;2022-12-13T07:43:33;-3.20;99.90
831;DHT22;397;50.564;7.272;2022-12-13T07:46:03;-3.20;99.90
831;DHT22;397;50.564;7.272;2022-12-13T07:48:31;-3.20;99.90
831;DHT22;397;50.564;7.272;2022-12-13T07:51:05;-3.20;99.90
831;DHT22;397;50.564;7.272;2022-12-13T07:53:33;-3.10;99.90
831;DHT22;397;50.564;7.272;2022-12-13T07:56:07;-3.10;99.90
831;DHT22;397;50.564;7.272;2022-12-13T07:58:31;-3.10;99.90
831;DHT22;397;50.564;7.272;2022-12-13T08:01:04;-3.10;99.90
831;DHT22;397;50.564;7.272;2022-12-13T08:03:34;-3.10;99.90
831;DHT22;397;50.564;7.272;2022-12-13T08:06:06;-3.10;99.90
831;DHT22;397;50.564;7.272;2022-12-13T08:08:34;-3.00;99.90
831;DHT22;397;50.564;7.272;2022-12-13T08:11:10;-3.00;99.90
831;DHT22;397;50.564;7.272;2022-12-13T08:13:34;-2.90;99.90
831;DHT22;397;50.564;7.272;2022-12-13T08:16:04;-2.80;99.90
831;DHT22;397;50.564;7.272;2022-12-13T08:18:32;-2.80;99.90
831;DHT22;397;50.564;7.272;2022-12-13T08:21:01;-2.80;99.90
831;DHT22;397;50.564;7.272;2022-12-13T08:23:31;-2.80;99.90
831;DHT22;397;50.564;7.272;2022-12-13T08:26:00;-2.70;99.90
831;DHT22;397;50.564;7.272;2022-12-13T08:28:29;-2.70;99.90
831;DHT22;397;50.564;7.272;2022-12-13T08:31:05;-2.60;99.90
831;DHT22;397;50.564;7.272;2022-12-13T08:33:33;-2.60;99.90
831;DHT22;397;50.564;7.272;2022-12-13T08:36:15;-2.40;99.90
831;DHT22;397;50.564;7.272;2022-12-13T08:38:44;-2.40;99.90
831;DHT22;397;50.564;7.272;2022-12-13T08:41:12;-2.30;99.90
831;DHT22;397;50.564;7.272;2022-12-13T08:43:40;-2.20;99.90
831;DHT22;397;50.564;7.272;2022-12-13T08:46:07;-2.10;99.90
831;DHT22;397;50.564;7.272;2022-12-13T08:48:35;-2.10;99.90
831;DHT22;397;50.564;7.272;2022-12-13T08:51:05;-2.10;99.90
831;DHT22;397;50.564;7.272;2022-12-13T08:53:34;-2.10;99.90
831;DHT22;397;50.564;7.272;2022-12-13T08:56:04;-2.20;99.90
831;DHT22;397;50.564;7.272;2022-12-13T08:58:33;-2.10;99.90
831;DHT22;397;50.564;7.272;2022-12-13T09:01:03;-2.20;99.90
831;DHT22;397;50.564;7.272;2022-12-13T09:03:30;-2.10;99.90
831;DHT22;397;50.564;7.272;2022-12-13T09:06:04;-2.00;99.90
831;DHT22;397;50.564;7.272;2022-12-13T09:08:26;-2.00;99.90
831;DHT22;397;50.564;7.272;2022-12-13T09:10:58;-2.10;99.90
831;DHT22;397;50.564;7.272;2022-12-13T09:13:29;-2.10;99.90
831;DHT22;397;50.564;7.272;2022-12-13T09:15:58;-2.10;99.90
831;DHT22;397;50.564;7.272;2022-12-13T09:18:25;-2.00;99.90
831;DHT22;397;50.564;7.272;2022-12-13T09:20:53;-1.80;99.90
831;DHT22;397;50.564;7.272;2022-12-13T09:23:20;-1.90;99.90
831;DHT22;397;50.564;7.272;2022-12-13T09:25:56;-1.80;99.90
831;DHT22;397;50.564;7.272;2022-12-13T09:28:24;-1.80;99.90
831;DHT22;397;50.564;7.272;2022-12-13T09:30:51;-1.80;99.90
831;DHT22;397;50.564;7.272;2022-12-13T09:33:19;-1.80;99.90
831;DHT22;397;50.564;7.272;2022-12-13T09:35:46;-1.80;99.90
831;DHT22;397;50.564;7.272;2022-12-13T09:38:14;-1.70;99.90
831;DHT22;397;50.564;7.272;2022-12-13T09:40:43;-1.70;99.90
831;DHT22;397;50.564;7.272;2022-12-13T09:43:15;-1.60;99.90
831;DHT22;397;50.564;7.272;2022-12-13T09:45:44;-1.60;99.90
831;DHT22;397;50.564;7.272;2022-12-13T09:48:15;-1.60;99.90
831;DHT22;397;50.564;7.272;2022-12-13T09:50:42;-1.40;99.90
831;DHT22;397;50.564;7.272;2022-12-13T09:53:12;-1.30;99.90
831;DHT22;397;50.564;7.272;2022-12-13T09:55:49;-1.50;99.90
831;DHT22;397;50.564;7.272;2022-12-13T09:58:20;-1.40;99.90
831;DHT22;397;50.564;7.272;2022-12-13T10:00:50;-1.40;99.90
831;DHT22;397;50.564;7.272;2022-12-13T10:03:19;-1.30;99.90
831;DHT22;397;50.564;7.272;2022-12-13T10:05:56;-1.20;99.90
831;DHT22;397;50.564;7.272;2022-12-13T10:08:38;-1.10;99.90
831;DHT22;397;50.564;7.272;2022-12-13T10:11:05;-1.10;99.90
831;DHT22;397;50.564;7.272;2022-12-13T10:13:43;-1.30;99.90
831;DHT22;397;50.564;7.272;2022-12-13T10:16:18;-1.20;99.90
831;DHT22;397;50.564;7.272;2022-12-13T10:18:46;-1.10;99.90
831;DHT22;397;50.564;7.272;2022-12-13T10:21:32;-1.10;99.90
831;DHT22;397;50.564;7.272;2022-12-13T10:24:30;-1.00;99.90
831;DHT22;397;50.564;7.272;2022-12-13T10:26:36;-0.90;99.90
831;DHT22;397;50.564;7.272;2022-12-13T10:29:05;-0.90;99.90
831;DHT22;397;50.564;7.272;2022-12-13T10:31:46;-0.80;99.90
831;DHT22;397;50.564;7.272;2022-12-13T10:34:33;-0.70;99.90
831;DHT22;397;50.564;7.272;2022-12-13T10:36:55;-0.80;99.90
831;DHT22;397;50.564;7.272;2022-12-13T10:39:38;-0.80;99.90
831;DHT22;397;50.564;7.272;2022-12-13T10:42:12;-0.70;99.90
831;DHT22;397;50.564;7.272;2022-12-13T10:44:40;-0.80;99.90
831;DHT22;397;50.564;7.272;2022-12-13T10:47:23;-0.70;99.90
831;DHT22;397;50.564;7.272;2022-12-13T10:49:52;-0.80;99.90
831;DHT22;397;50.564;7.272;2022-12-13T10:52:28;-0.90;99.90
831;DHT22;397;50.564;7.272;2022-12-13T10:54:59;-0.80;99.90
831;DHT22;397;50.564;7.272;2022-12-13T10:57:28;-0.90;99.90
831;DHT22;397;50.564;7.272;2022-12-13T10:59:55;-0.90;99.90
831;DHT22;397;50.564;7.272;2022-12-13T11:02:36;-0.80;99.90
831;DHT22;397;50.564;7.272;2022-12-13T11:07:47;-0.80;99.90
831;DHT22;397;50.564;7.272;2022-12-13T11:10:27;-0.70;99.90
831;DHT22;397;50.564;7.272;2022-12-13T11:13:06;-0.70;99.90
831;DHT22;397;50.564;7.272;2022-12-13T11:15:36;-0.80;99.90
831;DHT22;397;50.564;7.272;2022-12-13T11:18:10;-0.70;99.90
831;DHT22;397;50.564;7.272;2022-12-13T11:20:38;-0.70;99.90
831;DHT22;397;50.564;7.272;2022-12-13T11:23:18;-0.70;99.90
831;DHT22;397;50.564;7.272;2022-12-13T11:25:44;-0.60;99.90
831;DHT22;397;50.564;7.272;2022-12-13T11:39:20;-0.50;99.90
831;DHT22;397;50.564;7.272;2022-12-13T11:44:52;-0.50;99.90
831;DHT22;397;50.564;7.272;2022-12-13T11:47:23;-0.40;99.90
831;DHT22;397;50.564;7.272;2022-12-13T11:49:52;-0.40;99.90
831;DHT22;397;50.564;7.272;2022-12-13T11:52:26;-0.50;99.90
831;DHT22;397;50.564;7.272;2022-12-13T11:54:58;-0.40;99.90
831;DHT22;397;50.564;7.272;2022-12-13T12:00:31;-0.30;99.90
831;DHT22;397;50.564;7.272;2022-12-13T12:03:03;-0.50;99.90
831;DHT22;397;50.564;7.272;2022-12-13T12:05:36;-0.30;99.90
831;DHT22;397;50.564;7.272;2022-12-13T12:10:44;-0.30;99.90
831;DHT22;397;50.564;7.272;2022-12-13T12:16:04;-0.30;99.90
831;DHT22;397;50.564;7.272;2022-12-13T12:18:28;-0.30;99.90
831;DHT22;397;50.564;7.272;2022-12-13T12:24:59;-0.10;99.90
831;DHT22;397;50.564;7.272;2022-12-13T12:29:39;-0.10;99.90
831;DHT22;397;50.564;7.272;2022-12-13T12:32:03;0.00;99.90
831;DHT22;397;50.564;7.272;2022-12-13T12:37:31;0.10;99.90
831;DHT22;397;50.564;7.272;2022-12-13T12:40:10;0.10;99.90
831;DHT22;397;50.564;7.272;2022-12-13T12:42:47;0.00;99.90
831;DHT22;397;50.564;7.272;2022-12-13T12:50:56;0.20;99.90
831;DHT22;397;50.564;7.272;2022-12-13T12:53:41;0.20;99.90
831;DHT22;397;50.564;7.272;2022-12-13T12:59:18;0.30;99.90
831;DHT22;397;50.564;7.272;2022-12-13T13:04:34;0.20;99.90
831;DHT22;397;50.564;7.272;2022-12-13T13:07:05;0.30;99.90
831;DHT22;397;50.564;7.272;2022-12-13T13:09:30;0.30;99.90
831;DHT22;397;50.564;7.272;2022-12-13T13:12:01;0.40;99.90
831;DHT22;397;50.564;7.272;2022-12-13T13:14:37;0.30;99.90
831;DHT22;397;50.564;7.272;2022-12-13T13:22:41;0.30;99.90
831;DHT22;397;50.564;7.272;2022-12-13T13:27:46;0.40;99.90
831;DHT22;397;50.564;7.272;2022-12-13T13:30:23;0.20;99.90
831;DHT22;397;50.564;7.272;2022-12-13T13:32:53;0.30;99.90
831;DHT22;397;50.564;7.272;2022-12-13T13:40:52;0.50;99.90
831;DHT22;397;50.564;7.272;2022-12-13T13:43:29;0.70;99.90
831;DHT22;397;50.564;7.272;2022-12-13T13:46:07;0.70;99.90
831;DHT22;397;50.564;7.272;2022-12-13T13:51:39;0.70;99.90
831;DHT22;397;50.564;7.272;2022-12-13T13:57:35;0.70;99.90
831;DHT22;397;50.564;7.272;2022-12-13T14:14:46;0.90;99.90
831;DHT22;397;50.564;7.272;2022-12-13T14:26:29;0.80;99.90
831;DHT22;397;50.564;7.272;2022-12-13T14:28:56;0.80;99.90
831;DHT22;397;50.564;7.272;2022-12-13T14:31:34;0.80;99.90
831;DHT22;397;50.564;7.272;2022-12-13T14:34:04;0.80;99.90
831;DHT22;397;50.564;7.272;2022-12-13T14:36:34;0.80;99.90
831;DHT22;397;50.564;7.272;2022-12-13T14:39:14;0.80;99.90
831;DHT22;397;50.564;7.272;2022-12-13T14:41:47;0.80;99.90
831;DHT22;397;50.564;7.272;2022-12-13T14:44:18;0.60;99.90
831;DHT22;397;50.564;7.272;2022-12-13T14:47:02;0.60;99.90
831;DHT22;397;50.564;7.272;2022-12-13T14:49:38;0.60;99.90
831;DHT22;397;50.564;7.272;2022-12-13T14:52:23;0.60;99.90
831;DHT22;397;50.564;7.272;2022-12-13T14:54:58;0.60;99.90
831;DHT22;397;50.564;7.272;2022-12-13T14:57:24;0.60;99.90
831;DHT22;397;50.564;7.272;2022-12-13T14:59:55;0.60;99.90
831;DHT22;397;50.564;7.272;2022-12-13T15:02:28;0.50;99.90
831;DHT22;397;50.564;7.272;2022-12-13T15:04:58;0.50;99.90
831;DHT22;397;50.564;7.272;2022-12-13T15:10:20;0.40;99.90
831;DHT22;397;50.564;7.272;2022-12-13T15:12:50;0.40;99.90
831;DHT22;397;50.564;7.272;2022-12-13T15:15:26;0.30;99.90
831;DHT22;397;50.564;7.272;2022-12-13T15:20:39;0.40;99.90
831;DHT22;397;50.564;7.272;2022-12-13T15:23:30;0.30;99.90
831;DHT22;397;50.564;7.272;2022-12-13T15:26:10;0.20;99.90
831;DHT22;397;50.564;7.272;2022-12-13T15:28:44;0.30;99.90
831;DHT22;397;50.564;7.272;2022-12-13T15:31:12;0.20;99.90
831;DHT22;397;50.564;7.272;2022-12-13T15:33:40;0.20;99.90
831;DHT22;397;50.564;7.272;2022-12-13T15:36:25;0.20;99.90
831;DHT22;397;50.564;7.272;2022-12-13T15:41:29;0.10;99.90
831;DHT22;397;50.564;7.272;2022-12-13T15:44:00;0.10;99.90
831;DHT22;397;50.564;7.272;2022-12-13T15:46:30;0.10;99.90
831;DHT22;397;50.564;7.272;2022-12-13T15:49:00;0.10;99.90
831;DHT22;397;50.564;7.272;2022-12-13T15:51:29;0.20;99.90
831;DHT22;397;50.564;7.272;2022-12-13T15:57:01;0.10;99.90
831;DHT22;397;50.564;7.272;2022-12-13T15:59:32;0.10;99.90
831;DHT22;397;50.564;7.272;2022-12-13T16:02:01;0.00;99.90
831;DHT22;397;50.564;7.272;2022-12-13T16:04:31;0.00;99.90
831;DHT22;397;50.564;7.272;2022-12-13T16:07:00;0.00;99.90
831;DHT22;397;50.564;7.272;2022-12-13T16:09:30;0.00;99.90
831;DHT22;397;50.564;7.272;2022-12-13T16:12:00;0.00;99.90
831;DHT22;397;50.564;7.272;2022-12-13T16:14:35;0.00;99.90
831;DHT22;397;50.564;7.272;2022-12-13T16:17:23;0.00;99.90
831;DHT22;397;50.564;7.272;2022-12-13T16:19:46;0.00;99.90
831;DHT22;397;50.564;7.272;2022-12-13T16:22:13;0.00;99.90
831;DHT22;397;50.564;7.272;2022-12-13T16:24:41;-0.10;99.90
831;DHT22;397;50.564;7.272;2022-12-13T16:27:09;0.00;99.90
831;DHT22;397;50.564;7.272;2022-12-13T16:29:36;-0.10;99.90
831;DHT22;397;50.564;7.272;2022-12-13T16:32:04;0.00;99.90
831;DHT22;397;50.564;7.272;2022-12-13T16:34:31;0.00;99.90
831;DHT22;397;50.564;7.272;2022-12-13T16:36:59;0.00;99.90
831;DHT22;397;50.564;7.272;2022-12-13T16:39:27;0.00;99.90
831;DHT22;397;50.564;7.272;2022-12-13T16:41:54;-0.10;99.90
831;DHT22;397;50.564;7.272;2022-12-13T16:44:34;-0.10;99.90
831;DHT22;397;50.564;7.272;2022-12-13T16:47:07;-0.20;99.90
831;DHT22;397;50.564;7.272;2022-12-13T16:49:37;-0.10;99.90
831;DHT22;397;50.564;7.272;2022-12-13T16:52:04;-0.20;99.90
831;DHT22;397;50.564;7.272;2022-12-13T16:54:33;-0.10;99.90
831;DHT22;397;50.564;7.272;2022-12-13T16:57:01;-0.10;99.90
831;DHT22;397;50.564;7.272;2022-12-13T16:59:28;-0.10;99.90
831;DHT22;397;50.564;7.272;2022-12-13T17:01:56;-0.20;99.90
831;DHT22;397;50.564;7.272;2022-12-13T17:04:24;-0.20;99.90
831;DHT22;397;50.564;7.272;2022-12-13T17:06:52;-0.30;99.90
831;DHT22;397;50.564;7.272;2022-12-13T17:09:20;-0.40;99.90
831;DHT22;397;50.564;7.272;2022-12-13T17:11:48;-0.40;99.90
831;DHT22;397;50.564;7.272;2022-12-13T17:14:16;-0.30;99.90
831;DHT22;397;50.564;7.272;2022-12-13T17:16:43;-0.30;99.90
831;DHT22;397;50.564;7.272;2022-12-13T17:19:11;-0.30;99.90
831;DHT22;397;50.564;7.272;2022-12-13T17:21:40;-0.30;99.90
831;DHT22;397;50.564;7.272;2022-12-13T17:24:08;-0.30;99.90
831;DHT22;397;50.564;7.272;2022-12-13T17:26:35;-0.30;99.90
831;DHT22;397;50.564;7.272;2022-12-13T17:29:03;-0.30;99.90
831;DHT22;397;50.564;7.272;2022-12-13T17:31:30;-0.40;99.90
831;DHT22;397;50.564;7.272;2022-12-13T17:33:58;-0.40;99.90
831;DHT22;397;50.564;7.272;2022-12-13T17:36:26;-0.40;99.90
831;DHT22;397;50.564;7.272;2022-12-13T17:38:55;-0.30;99.90
831;DHT22;397;50.564;7.272;2022-12-13T17:41:24;-0.50;99.90
831;DHT22;397;50.564;7.272;2022-12-13T17:43:52;-0.50;99.90
831;DHT22;397;50.564;7.272;2022-12-13T17:46:21;-0.40;99.90
831;DHT22;397;50.564;7.272;2022-12-13T17:48:50;-0.30;99.90
831;DHT22;397;50.564;7.272;2022-12-13T17:51:17;-0.30;99.90
831;DHT22;397;50.564;7.272;2022-12-13T17:53:45;-0.30;99.90
831;DHT22;397;50.564;7.272;2022-12-13T17:56:14;-0.30;99.90
831;DHT22;397;50.564;7.272;2022-12-13T17:58:42;-0.30;99.90
831;DHT22;397;50.564;7.272;2022-12-13T18:01:15;-0.30;99.90
831;DHT22;397;50.564;7.272;2022-12-13T18:03:43;-0.30;99.90
831;DHT22;397;50.564;7.272;2022-12-13T18:06:10;-0.20;99.90
831;DHT22;397;50.564;7.272;2022-12-13T18:08:40;-0.20;99.90
831;DHT22;397;50.564;7.272;2022-12-13T18:11:11;-0.30;99.90
831;DHT22;397;50.564;7.272;2022-12-13T18:13:39;-0.20;99.90
831;DHT22;397;50.564;7.272;2022-12-13T18:16:09;-0.30;99.90
831;DHT22;397;50.564;7.272;2022-12-13T18:18:38;-0.30;99.90
831;DHT22;397;50.564;7.272;2022-12-13T18:21:16;-0.40;99.90
831;DHT22;397;50.564;7.272;2022-12-13T18:23:44;-0.30;99.90
831;DHT22;397;50.564;7.272;2022-12-13T18:26:13;-0.40;99.90
831;DHT22;397;50.564;7.272;2022-12-13T18:28:42;-0.40;99.90
831;DHT22;397;50.564;7.272;2022-12-13T18:31:15;-0.20;99.90
831;DHT22;397;50.564;7.272;2022-12-13T18:33:45;-0.30;99.90
831;DHT22;397;50.564;7.272;2022-12-13T18:36:13;-0.30;99.90
831;DHT22;397;50.564;7.272;2022-12-13T18:38:41;-0.30;99.90
831;DHT22;397;50.564;7.272;2022-12-13T18:41:14;-0.40;99.90
831;DHT22;397;50.564;7.272;2022-12-13T18:43:43;-0.40;99.90
831;DHT22;397;50.564;7.272;2022-12-13T18:46:12;-0.40;99.90
831;DHT22;397;50.564;7.272;2022-12-13T18:48:40;-0.30;99.90
831;DHT22;397;50.564;7.272;2022-12-13T18:51:09;-0.20;99.90
831;DHT22;397;50.564;7.272;2022-12-13T18:53:37;-0.30;99.90
831;DHT22;397;50.564;7.272;2022-12-13T18:56:08;-0.40;99.90
831;DHT22;397;50.564;7.272;2022-12-13T18:58:36;-0.40;99.90